Time;durP1;ratioP1;P1;durP2;ratioP2;P2;SDS_P1;SDS_P2;PMS_P1;PMS_P2;Temp;Humidity;BMP_temperature;BMP_pressure;BME280_temperature;BME280_humidity;BME280_pressure;Samples;Min_cycle;Max_cycle;Signal;HPM_P1;HPM_P2
2022/12/01 00:02:04;;;;;;;38.67;20.77;;;;;;;4.97;100.00;102693.50;4825940;29;20061;-77
2022/12/01 00:04:29;;;;;;;38.55;20.85;;;;;;;4.96;100.00;102696.97;4842449;29;20105;-77
2022/12/01 00:06:54;;;;;;;36.35;19.98;;;;;;;4.94;100.00;102696.03;4825927;29;20061;-77
2022/12/01 00:12:04;;;;;;;41.25;22.02;;;;;;;4.96;100.00;102692.59;4803173;29;20079;-77
2022/12/01 00:14:29;;;;;;;40.35;21.02;;;;;;;4.97;100.00;102696.13;4810806;29;20054;-77
2022/12/01 00:16:55;;;;;;;39.15;21.77;;;;;;;4.98;100.00;102690.03;4825525;29;20037;-77
2022/12/01 00:19:24;;;;;;;39.88;22.52;;;;;;;5.00;100.00;102690.09;4842335;29;20127;-77
2022/12/01 00:21:49;;;;;;;45.78;21.73;;;;;;;5.00;100.00;102697.97;4841677;29;20044;-77
2022/12/01 00:24:15;;;;;;;42.03;21.38;;;;;;;4.99;100.00;102698.78;4810702;29;20124;-77
2022/12/01 00:26:40;;;;;;;41.88;21.25;;;;;;;5.00;100.00;102696.22;4825463;29;20041;-77
2022/12/01 00:29:06;;;;;;;42.63;21.33;;;;;;;4.98;100.00;102699.66;4825492;29;20034;-77
2022/12/01 00:31:32;;;;;;;41.75;22.00;;;;;;;4.99;100.00;102693.53;4826328;29;20054;-77
2022/12/01 00:33:57;;;;;;;44.30;21.83;;;;;;;4.98;100.00;102697.91;4840331;29;20033;-77
2022/12/01 00:36:23;;;;;;;39.20;20.33;;;;;;;4.99;100.00;102693.53;4836022;29;20379;-77
2022/12/01 00:38:55;;;;;;;44.42;21.90;;;;;;;4.96;100.00;102687.34;4838523;29;20045;-77
2022/12/01 00:41:22;;;;;;;49.60;22.98;;;;;;;4.99;100.00;102697.06;4825450;29;20046;-77
2022/12/01 00:43:49;;;;;;;47.10;22.33;;;;;;;4.96;100.00;102689.97;4841483;29;20026;-77
2022/12/01 00:46:14;;;;;;;43.22;20.77;;;;;;;4.95;100.00;102693.47;4841730;29;20052;-77
2022/12/01 00:48:39;;;;;;;45.20;21.65;;;;;;;4.93;100.00;102689.88;4818543;29;20406;-77
2022/12/01 00:51:05;;;;;;;48.92;22.10;;;;;;;4.94;100.00;102690.78;4811549;29;20597;-77
2022/12/01 00:53:31;;;;;;;46.85;21.50;;;;;;;4.93;100.00;102700.38;4825141;29;20040;-77
2022/12/01 00:55:56;;;;;;;41.85;20.33;;;;;;;4.93;100.00;102696.88;4841326;29;20423;-77
2022/12/01 00:58:23;;;;;;;44.95;20.50;;;;;;;4.93;100.00;102695.13;4815754;29;20039;-77
2022/12/01 01:00:55;;;;;;;38.20;19.15;;;;;;;4.91;100.00;102688.94;4809321;29;20073;-77
2022/12/01 01:03:20;;;;;;;47.63;21.75;;;;;;;4.88;100.00;102691.47;4824810;29;20089;-77
2022/12/01 01:05:46;;;;;;;38.78;20.20;;;;;;;4.90;100.00;102699.41;4809789;29;20077;-77
2022/12/01 01:08:13;;;;;;;45.40;22.08;;;;;;;4.90;100.00;102695.03;4824819;29;20046;-77
2022/12/01 01:10:41;;;;;;;41.33;20.20;;;;;;;4.89;100.00;102700.25;4841325;29;20086;-77
2022/12/01 01:13:06;;;;;;;45.97;22.00;;;;;;;4.91;100.00;102695.94;4840969;29;20053;-77
2022/12/01 01:15:32;;;;;;;44.38;21.17;;;;;;;4.92;100.00;102700.31;4841130;29;20050;-77
2022/12/01 01:17:57;;;;;;;46.00;22.25;;;;;;;4.91;100.00;102691.56;4824785;29;20045;-77
2022/12/01 01:20:23;;;;;;;48.05;22.00;;;;;;;4.93;100.00;102707.38;4824345;29;20050;-77
2022/12/01 01:22:48;;;;;;;49.75;21.58;;;;;;;4.92;100.00;102701.25;4824915;29;20046;-77
2022/12/01 01:25:14;;;;;;;47.95;21.55;;;;;;;4.90;100.00;102708.19;4824132;29;20056;-76
2022/12/01 01:27:39;;;;;;;40.40;20.50;;;;;;;4.91;100.00;102712.56;4809436;29;20053;-77
2022/12/01 01:30:05;;;;;;;44.15;20.55;;;;;;;4.91;100.00;102711.69;4835040;29;20476;-77
2022/12/01 01:32:31;;;;;;;46.70;20.85;;;;;;;4.93;100.00;102721.38;4828123;29;20053;-77
2022/12/01 01:34:56;;;;;;;45.83;21.42;;;;;;;4.92;100.00;102714.38;4840853;29;20050;-77
2022/12/01 01:37:22;;;;;;;42.25;21.52;;;;;;;4.95;100.00;102727.59;4814648;29;20045;-76
2022/12/01 01:39:47;;;;;;;50.08;22.40;;;;;;;4.96;100.00;102729.34;4841172;29;20078;-77
2022/12/01 01:42:13;;;;;;;46.25;20.95;;;;;;;4.95;100.00;102727.59;4840725;29;20410;-77
2022/12/01 01:44:54;;;;;;;44.20;21.63;;;;;;;4.98;100.00;102728.53;4809142;29;20470;-77
2022/12/01 01:47:33;;;;;;;46.92;22.00;;;;;;;4.98;100.00;102723.28;4840598;29;20053;-77
2022/12/01 01:50:05;;;;;;;47.58;20.60;;;;;;;4.98;100.00;102731.16;4827389;29;20459;-77
2022/12/01 01:52:33;;;;;;;48.45;21.98;;;;;;;4.96;100.00;102726.72;4817819;29;20045;-77
2022/12/01 01:54:59;;;;;;;46.63;22.50;;;;;;;4.97;100.00;102727.66;4824186;29;20206;-77
2022/12/01 01:57:29;;;;;;;47.20;22.80;;;;;;;4.96;100.00;102721.47;4840823;29;20137;-77
2022/12/01 02:00:03;;;;;;;47.22;22.45;;;;;;;4.96;100.00;102720.59;4815007;29;20113;-77
2022/12/01 02:02:42;;;;;;;45.72;23.23;;;;;;;4.95;100.00;102724.97;4840816;29;20042;-77
2022/12/01 02:05:16;;;;;;;51.88;24.15;;;;;;;4.96;100.00;102726.72;4840190;29;20110;-77
2022/12/01 02:07:42;;;;;;;52.00;21.67;;;;;;;4.95;100.00;102724.97;4840855;29;20076;-77
2022/12/01 02:10:11;;;;;;;48.50;22.40;;;;;;;4.95;100.00;102719.72;4840190;29;20053;-76
2022/12/01 02:12:39;;;;;;;46.15;21.55;;;;;;;4.96;100.00;102725.84;4840651;29;20081;-77
2022/12/01 02:15:37;;;;;;;49.60;22.48;;;;;;;4.94;100.00;102723.16;4840532;29;20052;-77
2022/12/01 02:18:20;;;;;;;46.80;22.95;;;;;;;4.96;100.00;102726.72;4811936;29;20081;-77
2022/12/01 02:21:22;;;;;;;42.67;21.65;;;;;;;4.96;100.00;102724.09;4809993;29;20468;-77
2022/12/01 02:24:19;;;;;;;55.42;22.27;;;;;;;4.97;100.00;102730.28;4822441;29;20030;-76
2022/12/01 02:27:23;;;;;;;50.67;23.83;;;;;;;4.96;100.00;102725.84;4824016;29;20130;-77
2022/12/01 02:30:05;;;;;;;47.80;23.05;;;;;;;4.95;100.00;102732.84;4809256;29;20061;-77
2022/12/01 02:33:10;;;;;;;51.13;22.65;;;;;;;4.95;100.00;102724.97;4821774;29;20406;-77
2022/12/01 02:36:04;;;;;;;47.78;22.70;;;;;;;4.93;100.00;102726.63;4796214;29;20483;-77
2022/12/01 02:38:33;;;;;;;47.53;22.95;;;;;;;4.92;100.00;102727.50;4805241;29;20435;-77
2022/12/01 02:41:03;;;;;;;51.05;24.10;;;;;;;4.91;100.00;102722.19;4822301;29;20039;-76
2022/12/01 02:43:38;;;;;;;41.63;22.70;;;;;;;4.91;100.00;102732.69;4823369;29;20041;-77
2022/12/01 02:46:22;;;;;;;44.70;22.77;;;;;;;4.91;100.00;102724.81;4809263;29;20074;-77
2022/12/01 02:48:52;;;;;;;48.85;22.45;;;;;;;4.91;100.00;102728.31;4825166;29;20065;-76
2022/12/01 02:51:25;;;;;;;49.85;22.25;;;;;;;4.92;100.00;102726.59;4809065;29;20081;-77
2022/12/01 02:53:52;;;;;;;43.00;22.20;;;;;;;4.91;100.00;102725.69;4825287;29;20443;-77
2022/12/01 02:56:20;;;;;;;50.63;22.08;;;;;;;4.92;100.00;102726.59;4778806;29;20156;-77
2022/12/01 02:58:45;;;;;;;48.03;22.73;;;;;;;4.92;100.00;102719.63;4824156;29;20468;-77
2022/12/01 03:01:50;;;;;;;44.35;22.90;;;;;;;4.95;100.00;102722.34;4825040;29;20042;-77
2022/12/01 03:04:44;;;;;;;46.58;23.30;;;;;;;4.93;100.00;102729.25;4805401;29;20059;-77
2022/12/01 03:07:33;;;;;;;45.28;22.92;;;;;;;4.96;100.00;102731.09;4805710;29;20051;-77
2022/12/01 03:10:25;;;;;;;41.38;22.17;;;;;;;4.93;100.00;102723.13;4807106;29;20085;-77
2022/12/01 03:13:19;;;;;;;50.15;24.55;;;;;;;4.95;100.00;102724.97;4805838;29;20039;-77
2022/12/01 03:16:02;;;;;;;52.53;23.42;;;;;;;4.96;100.00;102728.47;4801371;29;20058;-77
2022/12/01 03:18:58;;;;;;;49.78;23.88;;;;;;;4.99;100.00;102730.31;4806643;29;20079;-77
2022/12/01 03:21:30;;;;;;;49.53;23.10;;;;;;;4.98;100.00;102729.41;4805431;29;20043;-77
2022/12/01 03:24:02;;;;;;;47.03;22.73;;;;;;;4.96;100.00;102725.84;4806563;29;20384;-76
2022/12/01 03:26:31;;;;;;;49.40;24.55;;;;;;;4.96;100.00;102728.47;4806541;29;20053;-77
2022/12/01 03:29:05;;;;;;;45.55;22.73;;;;;;;4.94;100.00;102724.91;4806470;29;20406;-76
2022/12/01 03:31:39;;;;;;;50.78;23.98;;;;;;;4.92;100.00;102724.88;4804689;29;20129;-77
2022/12/01 03:34:26;;;;;;;50.00;23.17;;;;;;;4.95;100.00;102727.59;4806411;29;20034;-77
2022/12/01 03:36:57;;;;;;;43.20;23.05;;;;;;;4.92;100.00;102727.50;4806432;29;20503;-76
2022/12/01 03:39:26;;;;;;;;;;;;;;;4.99;100.00;102725.94;4805329;29;20035;-76
2022/12/01 03:42:14;;;;;;;41.03;20.92;;;;;;;4.97;100.00;102727.66;4805224;29;20337;-77
2022/12/01 03:44:50;;;;;;;45.70;23.17;;;;;;;4.96;100.00;102729.34;4806331;29;20073;-76
2022/12/01 03:47:20;;;;;;;46.83;22.67;;;;;;;4.96;100.00;102720.59;4806266;29;20519;-76
2022/12/01 03:49:48;;;;;;;48.33;22.92;;;;;;;4.95;100.00;102721.44;4806119;29;20030;-76
2022/12/01 03:52:23;;;;;;;47.13;22.42;;;;;;;4.96;100.00;102723.22;4806202;29;20043;-77
2022/12/01 03:55:07;;;;;;;42.97;22.20;;;;;;;4.97;100.00;102730.28;4805481;29;20393;-76
2022/12/01 03:57:57;;;;;;;45.35;23.55;;;;;;;5.00;100.00;102726.84;4789723;29;20035;-76
2022/12/01 04:00:23;;;;;;;46.05;22.75;;;;;;;4.96;100.00;102725.84;4796178;29;20057;-77
2022/12/01 04:02:55;;;;;;;42.58;22.73;;;;;;;4.95;100.00;102724.97;4805850;29;20073;-76
2022/12/01 04:05:21;;;;;;;47.38;23.20;;;;;;;4.97;100.00;102730.28;4805850;29;20055;-76
2022/12/01 04:07:46;;;;;;;48.60;22.15;;;;;;;4.97;100.00;102732.91;4789700;29;20067;-77
2022/12/01 04:10:12;;;;;;;48.72;24.75;;;;;;;4.96;100.00;102731.09;4805702;29;20074;-76
2022/12/01 04:12:37;;;;;;;44.38;22.42;;;;;;;4.94;100.00;102731.03;4805983;29;20050;-77
2022/12/01 04:15:06;;;;;;;49.15;23.20;;;;;;;4.94;100.00;102731.03;4805651;29;20463;-76
2022/12/01 04:17:32;;;;;;;44.45;21.80;;;;;;;4.93;100.00;102729.25;4805694;29;20068;-77
2022/12/01 04:19:58;;;;;;;44.97;23.45;;;;;;;4.93;100.00;102734.53;4805600;29;20052;-77
2022/12/01 04:22:24;;;;;;;43.95;22.23;;;;;;;4.92;100.00;102734.47;4804237;29;20095;-77
2022/12/01 04:24:50;;;;;;;39.15;20.55;;;;;;;4.92;100.00;102731.84;4804277;29;20460;-76
2022/12/01 04:27:15;;;;;;;49.63;23.83;;;;;;;4.94;100.00;102735.41;4805846;29;20027;-77
2022/12/01 04:29:40;;;;;;;41.55;21.08;;;;;;;4.91;100.00;102724.81;4803670;29;20508;-77
2022/12/01 04:32:06;;;;;;;43.72;23.30;;;;;;;4.91;100.00;102738.81;4805019;29;20038;-77
2022/12/01 04:34:32;;;;;;;42.55;21.98;;;;;;;4.93;100.00;102739.78;4805238;29;20065;-76
2022/12/01 04:36:57;;;;;;;40.75;20.50;;;;;;;4.93;100.00;102734.53;4805135;29;20511;-76
2022/12/01 04:39:23;;;;;;;44.03;22.08;;;;;;;4.95;100.00;102734.59;4804890;29;20058;-77
2022/12/01 04:41:49;;;;;;;42.88;22.33;;;;;;;4.92;100.00;102726.59;4805217;29;20046;-77
2022/12/01 04:44:14;;;;;;;43.58;22.08;;;;;;;4.92;100.00;102732.75;4803938;29;20123;-76
2022/12/01 04:46:40;;;;;;;47.22;23.27;;;;;;;4.92;100.00;102729.22;4805004;29;20047;-76
2022/12/01 04:49:05;;;;;;;43.95;22.85;;;;;;;4.92;100.00;102726.59;4804987;29;20074;-76
2022/12/01 04:51:31;;;;;;;43.30;22.23;;;;;;;4.91;100.00;102723.06;4805047;29;20035;-76
2022/12/01 04:53:56;;;;;;;44.30;22.15;;;;;;;4.91;100.00;102724.81;4803688;29;20456;-76
2022/12/01 04:56:22;;;;;;;45.88;22.85;;;;;;;4.91;100.00;102730.06;4805045;29;20038;-76
2022/12/01 04:58:47;;;;;;;41.53;21.73;;;;;;;4.91;100.00;102728.31;4804845;29;20038;-76
2022/12/01 05:01:15;;;;;;;41.33;20.48;;;;;;;4.90;100.00;102721.31;4804756;29;20050;-76
2022/12/01 05:03:44;;;;;;;41.08;22.65;;;;;;;4.92;100.00;102723.94;4811140;29;20157;-76
2022/12/01 05:06:15;;;;;;;44.40;23.13;;;;;;;4.91;100.00;102722.19;4806128;29;20050;-77
2022/12/01 05:08:41;;;;;;;41.10;21.77;;;;;;;4.91;100.00;102722.19;4822643;29;20179;-76
2022/12/01 05:11:10;;;;;;;43.00;22.55;;;;;;;4.92;100.00;102719.63;4806530;29;20062;-76
2022/12/01 05:13:40;;;;;;;42.47;22.88;;;;;;;4.91;100.00;102724.81;4806223;29;20034;-77
2022/12/01 05:16:08;;;;;;;45.20;22.85;;;;;;;4.90;100.00;102723.94;4823111;29;20091;-76
2022/12/01 05:18:34;;;;;;;40.13;20.98;;;;;;;4.91;100.00;102722.19;4822790;29;20054;-76
2022/12/01 05:21:01;;;;;;;39.05;20.85;;;;;;;4.89;100.00;102722.13;4823092;29;20536;-76
2022/12/01 05:23:32;;;;;;;43.88;23.17;;;;;;;4.90;100.00;102737.06;4822955;29;20069;-77
2022/12/01 05:25:57;;;;;;;44.92;22.05;;;;;;;4.91;100.00;102728.31;4822999;29;20053;-76
2022/12/01 05:28:25;;;;;;;38.33;21.08;;;;;;;4.90;100.00;102728.28;4822924;29;20030;-76
2022/12/01 05:30:53;;;;;;;45.97;22.13;;;;;;;4.88;100.00;102733.47;4805685;29;20138;-76
2022/12/01 05:33:18;;;;;;;41.08;22.75;;;;;;;4.89;100.00;102737.88;4822400;29;20415;-77
2022/12/01 05:35:44;;;;;;;44.00;22.73;;;;;;;4.89;100.00;102737.88;4822610;29;20038;-76
2022/12/01 05:38:09;;;;;;;52.05;24.02;;;;;;;4.90;100.00;102733.53;4822787;29;20368;-77
2022/12/01 05:40:36;;;;;;;48.15;24.42;;;;;;;4.89;100.00;102740.50;4790846;29;20106;-76
2022/12/01 05:43:02;;;;;;;53.58;24.55;;;;;;;4.88;100.00;102733.47;4822999;29;20093;-76
2022/12/01 05:45:28;;;;;;;46.30;23.67;;;;;;;4.86;100.00;102739.53;4790948;29;20043;-76
2022/12/01 05:47:55;;;;;;;55.33;25.52;;;;;;;4.87;100.00;102743.91;4822355;29;20041;-76
2022/12/01 05:50:21;;;;;;;56.42;24.50;;;;;;;4.86;100.00;102747.41;4790994;29;20367;-76
2022/12/01 05:52:47;;;;;;;54.80;25.10;;;;;;;4.85;100.00;102743.00;4790987;29;20352;-76
2022/12/01 05:55:12;;;;;;;60.72;26.75;;;;;;;4.84;100.00;102739.47;4822515;29;20045;-76
2022/12/01 05:57:37;;;;;;;51.13;24.83;;;;;;;4.83;100.00;102740.31;4798373;29;20085;-76
2022/12/01 06:00:05;;;;;;;61.15;27.08;;;;;;;4.82;100.00;102738.56;4805891;29;20042;-76
2022/12/01 06:02:37;;;;;;;53.88;24.52;;;;;;;4.83;100.00;102745.56;4806909;29;20043;-76
2022/12/01 06:05:03;;;;;;;53.28;25.25;;;;;;;4.82;100.00;102745.50;4822045;29;20523;-76
2022/12/01 06:07:29;;;;;;;52.72;23.33;;;;;;;4.81;100.00;102746.38;4822433;29;20046;-76
2022/12/01 06:09:54;;;;;;;53.53;24.30;;;;;;;4.82;100.00;102750.75;4822212;29;20428;-76
2022/12/01 06:12:20;;;;;;;53.30;24.45;;;;;;;4.82;100.00;102754.31;4776014;29;20484;-76
2022/12/01 06:14:45;;;;;;;54.03;23.98;;;;;;;4.83;100.00;102755.19;4822339;29;20050;-76
2022/12/01 06:17:11;;;;;;;55.03;25.38;;;;;;;4.81;100.00;102751.63;4822138;29;20090;-77
2022/12/01 06:19:37;;;;;;;52.42;25.05;;;;;;;4.81;100.00;102749.88;4824941;29;20344;-76
2022/12/01 06:22:02;;;;;;;55.47;26.27;;;;;;;4.82;100.00;102750.75;4809377;29;20484;-76
2022/12/01 06:24:28;;;;;;;53.08;26.88;;;;;;;4.80;100.00;102744.56;4809566;29;20561;-76
2022/12/01 06:26:53;;;;;;;53.78;24.55;;;;;;;4.82;100.00;102748.13;4809186;29;20049;-77
2022/12/01 06:29:19;;;;;;;53.65;25.42;;;;;;;4.81;100.00;102743.75;4809246;29;20117;-77
2022/12/01 06:31:44;;;;;;;48.13;23.58;;;;;;;4.80;100.00;102745.47;4823480;29;20045;-76
2022/12/01 06:34:10;;;;;;;56.72;25.52;;;;;;;4.82;100.00;102749.06;4825412;29;20045;-76
2022/12/01 06:36:35;;;;;;;57.67;25.27;;;;;;;4.82;100.00;102749.06;4825486;29;20371;-76
2022/12/01 06:39:04;;;;;;;55.28;25.20;;;;;;;4.82;100.00;102758.63;4825170;29;20062;-76
2022/12/01 06:41:30;;;;;;;48.78;23.90;;;;;;;4.81;100.00;102754.25;4825534;29;20101;-76
2022/12/01 06:43:55;;;;;;;52.65;24.42;;;;;;;4.79;100.00;102754.19;4825445;29;20208;-76
2022/12/01 06:46:21;;;;;;;52.10;24.33;;;;;;;4.81;100.00;102755.13;4825170;29;20113;-77
2022/12/01 06:48:48;;;;;;;57.67;25.33;;;;;;;4.81;100.00;102757.75;4793672;29;20114;-76
2022/12/01 06:51:13;;;;;;;52.65;24.20;;;;;;;4.81;100.00;102760.38;4793979;29;20038;-76
2022/12/01 06:53:38;;;;;;;53.00;25.15;;;;;;;4.82;100.00;102764.81;4808794;29;20042;-76
2022/12/01 06:56:04;;;;;;;48.15;23.30;;;;;;;4.81;100.00;102765.63;4824958;29;20048;-76
2022/12/01 06:58:30;;;;;;;52.08;25.55;;;;;;;4.80;100.00;102773.44;4819536;29;20073;-76
2022/12/01 07:00:57;;;;;;;47.67;23.23;;;;;;;4.80;100.00;102773.44;4819340;29;20442;-76
2022/12/01 07:03:23;;;;;;;50.38;24.02;;;;;;;4.82;100.00;102777.00;4824798;29;20128;-77
2022/12/01 07:05:59;;;;;;;50.33;23.60;;;;;;;4.81;100.00;102776.13;4808804;29;20502;-76
2022/12/01 07:08:27;;;;;;;47.80;24.23;;;;;;;4.79;100.00;102775.19;4808201;29;20194;-76
2022/12/01 07:10:57;;;;;;;51.65;24.10;;;;;;;4.80;100.00;102781.31;4793544;29;20041;-76
2022/12/01 07:13:22;;;;;;;50.08;23.60;;;;;;;4.81;100.00;102785.75;4808296;29;20042;-76
2022/12/01 07:15:48;;;;;;;52.08;24.30;;;;;;;4.80;100.00;102783.94;4808425;29;20049;-76
2022/12/01 07:18:13;;;;;;;43.92;22.48;;;;;;;4.81;100.00;102784.00;4808249;29;20062;-76
2022/12/01 07:20:38;;;;;;;47.00;23.73;;;;;;;4.81;100.00;102788.38;4818224;29;20062;-77
2022/12/01 07:23:04;;;;;;;47.65;23.10;;;;;;;4.80;100.00;102787.47;4822302;29;20073;-76
2022/12/01 07:25:29;;;;;;;50.55;23.10;;;;;;;4.82;100.00;102793.69;4822985;29;20045;-76
2022/12/01 07:27:55;;;;;;;49.17;23.75;;;;;;;4.82;100.00;102790.13;4790460;29;20432;-76
2022/12/01 07:30:21;;;;;;;49.10;24.15;;;;;;;4.82;100.00;102793.69;4803920;29;20046;-75
2022/12/01 07:32:46;;;;;;;51.92;25.17;;;;;;;4.83;100.00;102798.06;4824547;29;20091;-75
2022/12/01 07:35:12;;;;;;;47.75;23.48;;;;;;;4.84;100.00;102797.22;4824343;29;20554;-75
2022/12/01 07:37:37;;;;;;;44.33;23.23;;;;;;;4.84;100.00;102797.22;4807993;29;20130;-76
2022/12/01 07:40:03;;;;;;;47.17;23.42;;;;;;;4.84;100.00;102796.34;4805286;29;20059;-75
2022/12/01 07:42:28;;;;;;;44.63;23.10;;;;;;;4.82;100.00;102791.06;4824247;29;20107;-75
2022/12/01 07:44:54;;;;;;;50.55;23.63;;;;;;;4.84;100.00;102789.34;4807445;29;20455;-75
2022/12/01 07:47:19;;;;;;;47.63;22.20;;;;;;;4.85;100.00;102793.78;4818879;29;20073;-75
2022/12/01 07:49:45;;;;;;;48.92;23.70;;;;;;;4.85;100.00;102796.41;4805753;29;20026;-75
2022/12/01 07:52:10;;;;;;;49.83;23.48;;;;;;;4.87;100.00;102806.94;4799785;29;20039;-75
2022/12/01 07:54:36;;;;;;;44.70;23.00;;;;;;;4.86;100.00;102806.03;4822298;29;20469;-76
2022/12/01 07:57:01;;;;;;;48.22;23.90;;;;;;;4.87;100.00;102806.94;4824099;29;20423;-76
2022/12/01 07:59:26;;;;;;;47.90;24.05;;;;;;;4.88;100.00;102812.25;4807573;29;20046;-75
2022/12/01 08:01:52;;;;;;;45.92;23.38;;;;;;;4.89;100.00;102811.38;4809925;29;20028;-76
2022/12/01 08:04:17;;;;;;;46.17;24.00;;;;;;;4.89;100.00;102815.75;4823812;29;20144;-76
2022/12/01 08:06:43;;;;;;;45.33;24.63;;;;;;;4.90;100.00;102817.56;4777628;29;20042;-76
2022/12/01 08:09:08;;;;;;;50.05;25.90;;;;;;;4.88;100.00;102813.97;4835338;29;20083;-76
2022/12/01 08:11:34;;;;;;;46.53;24.13;;;;;;;4.91;100.00;102817.59;4833997;29;20118;-76
2022/12/01 08:14:00;;;;;;;50.08;23.40;;;;;;;4.92;100.00;102819.38;4831171;29;20537;-76
2022/12/01 08:19:37;;;;;;;50.08;23.33;;;;;;;4.97;100.00;102824.78;4825805;29;20038;-74
2022/12/01 08:22:03;;;;;;;51.95;24.50;;;;;;;4.97;100.00;102830.06;4807124;29;20139;-74
2022/12/01 08:24:28;;;;;;;52.75;25.08;;;;;;;4.99;100.00;102827.44;4807165;29;20126;-74
2022/12/01 08:26:53;;;;;;;53.63;26.65;;;;;;;4.99;100.00;102828.34;4823625;29;20030;-74
2022/12/01 08:29:19;;;;;;;52.40;24.30;;;;;;;5.00;100.00;102826.63;4824594;29;20563;-74
2022/12/01 08:31:44;;;;;;;51.65;25.20;;;;;;;5.00;100.00;102824.00;4822614;29;20065;-74
2022/12/01 08:34:10;;;;;;;48.40;24.48;;;;;;;5.02;100.00;102823.22;4807181;29;20364;-74
2022/12/01 08:36:36;;;;;;;44.17;23.90;;;;;;;5.04;100.00;102837.25;4823242;29;20432;-76
2022/12/01 08:39:01;;;;;;;51.40;25.27;;;;;;;5.04;100.00;102831.13;4823356;29;20045;-76
2022/12/01 08:41:27;;;;;;;44.20;23.73;;;;;;;5.07;100.00;102833.84;4824476;29;20512;-76
2022/12/01 08:43:53;;;;;;;44.33;23.55;;;;;;;5.09;100.00;102829.53;4829700;29;20026;-75
2022/12/01 08:46:19;;;;;;;46.58;24.88;;;;;;;5.10;100.00;102834.84;4806872;29;20088;-76
2022/12/01 08:48:45;;;;;;;47.05;23.80;;;;;;;5.11;100.00;102831.38;4791596;29;20125;-76
2022/12/01 08:51:14;;;;;;;48.90;25.45;;;;;;;5.10;100.00;102834.84;4822682;29;20038;-76
2022/12/01 08:53:42;;;;;;;49.25;24.77;;;;;;;5.11;100.00;102827.84;4823287;29;20375;-76
2022/12/01 08:56:20;;;;;;;49.75;24.63;;;;;;;5.17;100.00;102838.56;4823366;29;20041;-76
2022/12/01 08:58:45;;;;;;;42.80;23.83;;;;;;;5.18;100.00;102825.47;4821615;29;20480;-76
2022/12/01 09:01:13;;;;;;;46.92;24.30;;;;;;;5.18;100.00;102833.34;4806584;29;20045;-76
2022/12/01 09:03:39;;;;;;;45.65;25.35;;;;;;;5.20;100.00;102830.78;4822915;29;20503;-76
2022/12/01 09:06:10;;;;;;;47.25;26.60;;;;;;;5.22;100.00;102836.06;4806770;29;20050;-76
2022/12/01 09:08:36;;;;;;;51.80;27.00;;;;;;;5.22;100.00;102837.00;4818744;29;20043;-76
2022/12/01 09:11:05;;;;;;;74.72;39.17;;;;;;;5.24;100.00;102834.38;4806566;29;20557;-76
2022/12/01 09:13:32;;;;;;;60.47;29.70;;;;;;;5.27;100.00;102835.41;4806598;29;20062;-76
2022/12/01 09:16:01;;;;;;;45.90;26.40;;;;;;;5.29;100.00;102836.34;4823030;29;20041;-76
2022/12/01 09:18:27;;;;;;;45.40;22.88;;;;;;;5.32;100.00;102836.44;4822981;29;20042;-76
2022/12/01 09:20:53;;;;;;;47.97;25.50;;;;;;;5.34;100.00;102847.88;4822898;29;20034;-76
2022/12/01 09:23:20;;;;;;;46.78;25.35;;;;;;;5.36;100.00;102837.41;4806329;29;20023;-75
2022/12/01 09:25:47;;;;;;;50.15;23.55;;;;;;;5.38;100.00;102839.25;4822857;29;20066;-76
2022/12/01 09:28:13;;;;;;;46.13;25.15;;;;;;;5.43;100.00;102849.00;4823092;29;20405;-75
2022/12/01 09:30:38;;;;;;;52.22;27.55;;;;;;;5.44;100.00;102850.78;4821729;29;20110;-76
2022/12/01 09:33:04;;;;;;;48.80;25.80;;;;;;;5.46;100.00;102836.84;4788272;29;20149;-76
2022/12/01 09:35:30;;;;;;;48.53;26.13;;;;;;;5.50;100.00;102845.72;4806124;29;20527;-75
2022/12/01 09:37:57;;;;;;;46.67;24.95;;;;;;;5.54;100.00;102843.25;4822852;29;20514;-76
2022/12/01 09:40:36;;;;;;;44.33;23.95;;;;;;;5.57;100.00;102840.72;4822789;29;20034;-75
2022/12/01 09:43:04;;;;;;;49.03;24.17;;;;;;;5.62;100.00;102854.00;4822981;29;20034;-75
2022/12/01 09:45:35;;;;;;;53.20;26.13;;;;;;;5.64;100.00;102847.06;4822501;29;20031;-75
2022/12/01 09:48:03;;;;;;;49.17;24.67;;;;;;;5.69;100.00;102849.84;4822575;29;20042;-75
2022/12/01 09:50:30;;;;;;;49.75;24.67;;;;;;;5.67;100.00;102844.53;4822587;29;20299;-75
2022/12/01 09:52:56;;;;;;;46.00;25.30;;;;;;;5.69;100.00;102837.56;4805479;29;20046;-75
2022/12/01 09:55:23;;;;;;;50.63;24.63;;;;;;;5.71;100.00;102846.41;4822517;29;20042;-75
2022/12/01 09:57:52;;;;;;;57.58;27.63;;;;;;;5.70;99.22;102844.59;4822019;29;20038;-75
2022/12/01 10:00:21;;;;;;;51.25;26.05;;;;;;;5.72;100.00;102842.91;4811930;29;20041;-75
2022/12/01 10:02:46;;;;;;;53.88;27.17;;;;;;;5.73;99.93;102836.81;4805986;29;20034;-75
2022/12/01 10:05:22;;;;;;;49.92;25.90;;;;;;;5.74;100.00;102832.47;4822243;29;20450;-75
2022/12/01 10:08:02;;;;;;;50.33;25.33;;;;;;;5.79;100.00;102831.75;4822625;29;20124;-75
2022/12/01 10:10:32;;;;;;;53.22;26.65;;;;;;;5.84;100.00;102831.00;4805772;29;20054;-75
2022/12/01 10:12:59;;;;;;;48.65;25.25;;;;;;;5.85;100.00;102823.13;4822533;29;20046;-75
2022/12/01 10:15:43;;;;;;;56.22;26.63;;;;;;;5.89;100.00;102829.41;4822242;29;20118;-75
2022/12/01 10:18:31;;;;;;;55.42;25.88;;;;;;;5.97;99.71;102827.91;4822437;29;20038;-75
2022/12/01 10:21:16;;;;;;;54.38;26.48;;;;;;;6.03;99.81;102830.69;4822354;29;20110;-75
2022/12/01 10:24:24;;;;;;;50.10;25.17;;;;;;;6.00;98.98;102818.34;4821486;29;20038;-75
2022/12/01 10:27:01;;;;;;;49.80;24.55;;;;;;;5.98;98.57;102822.69;4790657;29;20042;-75
2022/12/01 10:29:38;;;;;;;47.72;24.60;;;;;;;5.98;98.45;102813.88;4820862;29;20130;-75
2022/12/01 10:32:16;;;;;;;50.03;25.95;;;;;;;5.99;98.47;102821.84;4819995;29;20061;-75
2022/12/01 10:34:45;;;;;;;51.47;26.15;;;;;;;5.97;98.12;102815.63;4822121;29;20038;-75
2022/12/01 10:37:24;;;;;;;50.90;25.85;;;;;;;5.94;98.58;102812.94;4822076;29;20066;-75
2022/12/01 10:39:53;;;;;;;47.42;24.15;;;;;;;5.91;98.01;102807.56;4822083;29;20035;-75
2022/12/01 10:42:36;;;;;;;49.70;24.65;;;;;;;5.95;98.84;102819.06;4822204;29;20037;-75
2022/12/01 10:45:05;;;;;;;54.05;26.48;;;;;;;5.96;98.78;102812.94;4825808;29;20045;-75
2022/12/01 10:47:31;;;;;;;52.90;26.30;;;;;;;5.97;98.44;102810.38;4826419;29;20515;-75
2022/12/01 10:49:57;;;;;;;52.17;25.70;;;;;;;6.00;98.80;102805.19;4822000;29;20125;-75
2022/12/01 10:52:35;;;;;;;53.00;25.27;;;;;;;6.05;99.08;102807.06;4821942;29;20469;-75
2022/12/01 10:55:02;;;;;;;52.88;26.23;;;;;;;6.10;98.64;102800.19;4821979;29;20049;-73
2022/12/01 10:57:29;;;;;;;55.30;25.77;;;;;;;6.16;98.65;102798.66;4805976;29;20046;-75
2022/12/01 11:00:01;;;;;;;51.45;25.08;;;;;;;6.21;98.34;102798.78;4824331;29;20632;-75
2022/12/01 11:02:29;;;;;;;51.95;25.30;;;;;;;6.25;97.72;102798.88;4821861;29;20081;-75
2022/12/01 11:05:04;;;;;;;53.80;24.70;;;;;;;6.30;96.96;102801.63;4806984;29;20419;-75
2022/12/01 11:07:31;;;;;;;58.40;25.40;;;;;;;6.30;97.21;102792.84;4825146;29;20042;-75
2022/12/01 11:10:22;;;;;;;44.03;23.17;;;;;;;6.32;96.89;102801.69;4825305;29;20046;-75
2022/12/01 11:13:07;;;;;;;49.05;23.58;;;;;;;6.35;96.44;102796.50;4798432;29;20582;-75
2022/12/01 11:15:38;;;;;;;50.53;24.05;;;;;;;6.36;95.89;102798.31;4824924;29;20068;-75
2022/12/01 11:18:21;;;;;;;48.15;22.95;;;;;;;6.40;96.64;102794.88;4808620;29;20050;-75
2022/12/01 11:20:47;;;;;;;49.15;25.05;;;;;;;6.43;97.08;102798.50;4818409;29;20371;-75
2022/12/01 11:23:19;;;;;;;45.45;22.48;;;;;;;6.50;95.81;102796.03;4824594;29;20105;-74
2022/12/01 11:26:07;;;;;;;59.17;24.00;;;;;;;6.55;95.60;102790.06;4824519;29;20038;-76
2022/12/01 11:28:34;;;;;;;49.65;25.30;;;;;;;6.58;96.24;102795.38;4815377;29;20042;-75